sensor_id;sensor_type;location;lat;lon;timestamp;temperature;humidity
1259;DHT22;619;51.472;6.628;2023-08-07T00:01:59;18.80;90.30
1259;DHT22;619;51.472;6.628;2023-08-07T00:04:24;18.80;90.30
1259;DHT22;619;51.472;6.628;2023-08-07T00:06:50;18.70;90.20
1259;DHT22;619;51.472;6.628;2023-08-07T00:09:18;18.80;90.20
1259;DHT22;619;51.472;6.628;2023-08-07T00:11:46;18.80;90.20
1259;DHT22;619;51.472;6.628;2023-08-07T00:14:11;18.80;90.20
1259;DHT22;619;51.472;6.628;2023-08-07T00:16:37;18.80;90.20
1259;DHT22;619;51.472;6.628;2023-08-07T00:19:05;18.70;90.10
1259;DHT22;619;51.472;6.628;2023-08-07T00:21:31;18.80;90.20
1259;DHT22;619;51.472;6.628;2023-08-07T00:23:56;18.80;90.20
1259;DHT22;619;51.472;6.628;2023-08-07T00:26:22;18.80;90.10
1259;DHT22;619;51.472;6.628;2023-08-07T00:28:47;18.80;90.10
1259;DHT22;619;51.472;6.628;2023-08-07T00:31:13;18.80;90.10
1259;DHT22;619;51.472;6.628;2023-08-07T00:33:41;18.80;90.10
1259;DHT22;619;51.472;6.628;2023-08-07T00:36:07;18.80;90.00
1259;DHT22;619;51.472;6.628;2023-08-07T00:38:33;18.80;89.90
1259;DHT22;619;51.472;6.628;2023-08-07T00:40:59;18.80;90.00
1259;DHT22;619;51.472;6.628;2023-08-07T00:43:25;18.80;89.90
1259;DHT22;619;51.472;6.628;2023-08-07T00:45:51;18.80;89.80
1259;DHT22;619;51.472;6.628;2023-08-07T00:48:16;18.90;90.00
1259;DHT22;619;51.472;6.628;2023-08-07T00:50:46;18.90;89.90
1259;DHT22;619;51.472;6.628;2023-08-07T00:53:13;18.90;89.80
1259;DHT22;619;51.472;6.628;2023-08-07T00:55:39;19.00;89.80
1259;DHT22;619;51.472;6.628;2023-08-07T00:58:05;19.00;89.60
1259;DHT22;619;51.472;6.628;2023-08-07T01:00:33;19.00;89.60
1259;DHT22;619;51.472;6.628;2023-08-07T01:02:59;19.00;89.50
1259;DHT22;619;51.472;6.628;2023-08-07T01:05:25;19.00;89.40
1259;DHT22;619;51.472;6.628;2023-08-07T01:07:56;19.00;89.30
1259;DHT22;619;51.472;6.628;2023-08-07T01:13:21;19.00;89.30
1259;DHT22;619;51.472;6.628;2023-08-07T01:15:52;19.00;89.30
1259;DHT22;619;51.472;6.628;2023-08-07T01:18:23;19.00;89.30
1259;DHT22;619;51.472;6.628;2023-08-07T01:20:52;19.10;89.20
1259;DHT22;619;51.472;6.628;2023-08-07T01:23:20;19.10;89.10
1259;DHT22;619;51.472;6.628;2023-08-07T01:25:48;19.00;89.00
1259;DHT22;619;51.472;6.628;2023-08-07T01:28:24;19.10;89.20
1259;DHT22;619;51.472;6.628;2023-08-07T01:30:56;19.00;89.00
1259;DHT22;619;51.472;6.628;2023-08-07T01:33:52;19.00;89.20
1259;DHT22;619;51.472;6.628;2023-08-07T01:36:20;19.00;89.20
1259;DHT22;619;51.472;6.628;2023-08-07T01:38:49;19.00;89.40
1259;DHT22;619;51.472;6.628;2023-08-07T01:41:15;18.90;89.40
1259;DHT22;619;51.472;6.628;2023-08-07T01:43:41;18.90;89.80
1259;DHT22;619;51.472;6.628;2023-08-07T01:46:06;18.90;89.80
1259;DHT22;619;51.472;6.628;2023-08-07T01:48:32;18.80;89.80
1259;DHT22;619;51.472;6.628;2023-08-07T01:50:57;18.80;90.00
1259;DHT22;619;51.472;6.628;2023-08-07T01:53:23;18.80;90.00
1259;DHT22;619;51.472;6.628;2023-08-07T01:55:49;18.80;90.00
1259;DHT22;619;51.472;6.628;2023-08-07T01:58:14;18.80;90.00
1259;DHT22;619;51.472;6.628;2023-08-07T02:00:42;18.80;90.10
1259;DHT22;619;51.472;6.628;2023-08-07T02:03:08;18.70;90.00
1259;DHT22;619;51.472;6.628;2023-08-07T02:05:38;18.80;90.00
1259;DHT22;619;51.472;6.628;2023-08-07T02:08:04;18.70;90.10
1259;DHT22;619;51.472;6.628;2023-08-07T02:10:34;18.70;90.20
1259;DHT22;619;51.472;6.628;2023-08-07T02:13:03;18.60;90.30
1259;DHT22;619;51.472;6.628;2023-08-07T02:15:31;18.60;90.30
1259;DHT22;619;51.472;6.628;2023-08-07T02:17:59;18.60;90.40
1259;DHT22;619;51.472;6.628;2023-08-07T02:20:24;18.60;90.40
1259;DHT22;619;51.472;6.628;2023-08-07T02:22:50;18.60;90.40
1259;DHT22;619;51.472;6.628;2023-08-07T02:25:15;18.60;90.40
1259;DHT22;619;51.472;6.628;2023-08-07T02:27:41;18.60;90.40
1259;DHT22;619;51.472;6.628;2023-08-07T02:30:07;18.60;90.50
1259;DHT22;619;51.472;6.628;2023-08-07T02:32:36;18.60;90.40
1259;DHT22;619;51.472;6.628;2023-08-07T02:35:01;18.60;90.40
1259;DHT22;619;51.472;6.628;2023-08-07T02:37:29;18.60;90.50
1259;DHT22;619;51.472;6.628;2023-08-07T02:39:55;18.60;90.50
1259;DHT22;619;51.472;6.628;2023-08-07T02:42:20;18.60;90.50
1259;DHT22;619;51.472;6.628;2023-08-07T02:44:46;18.60;90.60
1259;DHT22;619;51.472;6.628;2023-08-07T02:47:11;18.60;90.60
1259;DHT22;619;51.472;6.628;2023-08-07T02:49:39;18.50;90.50
1259;DHT22;619;51.472;6.628;2023-08-07T02:52:07;18.50;90.50
1259;DHT22;619;51.472;6.628;2023-08-07T02:54:35;18.50;90.50
1259;DHT22;619;51.472;6.628;2023-08-07T02:57:01;18.60;90.60
1259;DHT22;619;51.472;6.628;2023-08-07T02:59:26;18.50;90.50
1259;DHT22;619;51.472;6.628;2023-08-07T03:01:54;18.50;90.50
1259;DHT22;619;51.472;6.628;2023-08-07T03:04:22;18.50;90.50
1259;DHT22;619;51.472;6.628;2023-08-07T03:06:50;18.50;90.50
1259;DHT22;619;51.472;6.628;2023-08-07T03:09:18;18.50;90.50
1259;DHT22;619;51.472;6.628;2023-08-07T03:11:46;18.50;90.50
1259;DHT22;619;51.472;6.628;2023-08-07T03:14:14;18.60;90.50
1259;DHT22;619;51.472;6.628;2023-08-07T03:16:39;18.60;90.50
1259;DHT22;619;51.472;6.628;2023-08-07T03:19:05;18.60;90.50
1259;DHT22;619;51.472;6.628;2023-08-07T03:21:35;18.50;90.30
1259;DHT22;619;51.472;6.628;2023-08-07T03:24:01;18.60;90.40
1259;DHT22;619;51.472;6.628;2023-08-07T03:26:26;18.60;90.40
1259;DHT22;619;51.472;6.628;2023-08-07T03:28:52;18.60;90.30
1259;DHT22;619;51.472;6.628;2023-08-07T03:31:20;18.60;90.30
1259;DHT22;619;51.472;6.628;2023-08-07T03:33:48;18.60;90.30
1259;DHT22;619;51.472;6.628;2023-08-07T03:36:15;18.60;90.40
1259;DHT22;619;51.472;6.628;2023-08-07T03:38:41;18.50;90.30
1259;DHT22;619;51.472;6.628;2023-08-07T03:41:07;18.50;90.30
1259;DHT22;619;51.472;6.628;2023-08-07T03:43:32;18.60;90.30
1259;DHT22;619;51.472;6.628;2023-08-07T03:45:58;18.60;90.20
1259;DHT22;619;51.472;6.628;2023-08-07T03:48:23;18.60;90.20
1259;DHT22;619;51.472;6.628;2023-08-07T03:50:51;18.60;90.10
1259;DHT22;619;51.472;6.628;2023-08-07T03:53:19;18.60;90.10
1259;DHT22;619;51.472;6.628;2023-08-07T03:55:50;18.60;90.50
1259;DHT22;619;51.472;6.628;2023-08-07T03:58:16;18.60;90.20
1259;DHT22;619;51.472;6.628;2023-08-07T04:00:44;18.60;90.20
1259;DHT22;619;51.472;6.628;2023-08-07T04:03:10;18.60;90.10
1259;DHT22;619;51.472;6.628;2023-08-07T04:05:38;18.60;90.00
1259;DHT22;619;51.472;6.628;2023-08-07T04:08:04;18.60;90.10
1259;DHT22;619;51.472;6.628;2023-08-07T04:10:29;18.70;90.10
1259;DHT22;619;51.472;6.628;2023-08-07T04:12:55;18.70;90.10
1259;DHT22;619;51.472;6.628;2023-08-07T04:15:20;18.60;90.00
1259;DHT22;619;51.472;6.628;2023-08-07T04:17:46;18.60;90.00
1259;DHT22;619;51.472;6.628;2023-08-07T04:20:14;18.60;90.00
1259;DHT22;619;51.472;6.628;2023-08-07T04:22:40;18.70;90.00
1259;DHT22;619;51.472;6.628;2023-08-07T04:25:06;18.70;89.90
1259;DHT22;619;51.472;6.628;2023-08-07T04:27:34;18.70;90.00
1259;DHT22;619;51.472;6.628;2023-08-07T04:30:02;18.70;90.00
1259;DHT22;619;51.472;6.628;2023-08-07T04:32:27;18.70;89.90
1259;DHT22;619;51.472;6.628;2023-08-07T04:34:55;18.70;89.90
1259;DHT22;619;51.472;6.628;2023-08-07T04:37:23;18.70;89.90
1259;DHT22;619;51.472;6.628;2023-08-07T04:39:54;18.80;89.90
1259;DHT22;619;51.472;6.628;2023-08-07T04:42:19;18.80;89.50
1259;DHT22;619;51.472;6.628;2023-08-07T04:44:47;18.80;89.30
1259;DHT22;619;51.472;6.628;2023-08-07T04:47:15;18.70;89.40
1259;DHT22;619;51.472;6.628;2023-08-07T04:49:43;18.70;89.40
1259;DHT22;619;51.472;6.628;2023-08-07T04:52:09;18.70;89.40
1259;DHT22;619;51.472;6.628;2023-08-07T04:54:34;18.80;89.40
1259;DHT22;619;51.472;6.628;2023-08-07T04:57:00;18.70;89.40
1259;DHT22;619;51.472;6.628;2023-08-07T04:59:28;18.70;89.30
1259;DHT22;619;51.472;6.628;2023-08-07T05:01:55;18.70;89.30
1259;DHT22;619;51.472;6.628;2023-08-07T05:04:21;18.80;89.40
1259;DHT22;619;51.472;6.628;2023-08-07T05:06:46;18.70;89.30
1259;DHT22;619;51.472;6.628;2023-08-07T05:09:12;18.70;89.20
1259;DHT22;619;51.472;6.628;2023-08-07T05:11:37;18.80;89.30
1259;DHT22;619;51.472;6.628;2023-08-07T05:14:03;18.70;89.30
1259;DHT22;619;51.472;6.628;2023-08-07T05:16:33;18.70;89.30
1259;DHT22;619;51.472;6.628;2023-08-07T05:18:59;18.70;89.30
1259;DHT22;619;51.472;6.628;2023-08-07T05:21:24;18.70;89.50
1259;DHT22;619;51.472;6.628;2023-08-07T05:23:50;18.70;89.70
1259;DHT22;619;51.472;6.628;2023-08-07T05:26:21;18.70;89.60
1259;DHT22;619;51.472;6.628;2023-08-07T05:28:51;18.70;89.60
1259;DHT22;619;51.472;6.628;2023-08-07T05:31:19;18.70;89.70
1259;DHT22;619;51.472;6.628;2023-08-07T05:33:47;18.70;89.60
1259;DHT22;619;51.472;6.628;2023-08-07T05:36:12;18.60;89.80
1259;DHT22;619;51.472;6.628;2023-08-07T05:38:38;18.60;90.00
1259;DHT22;619;51.472;6.628;2023-08-07T05:41:06;18.50;90.10
1259;DHT22;619;51.472;6.628;2023-08-07T05:43:32;18.50;90.20
1259;DHT22;619;51.472;6.628;2023-08-07T05:45:57;18.50;90.30
1259;DHT22;619;51.472;6.628;2023-08-07T05:48:23;18.40;90.30
1259;DHT22;619;51.472;6.628;2023-08-07T05:50:51;18.50;90.40
1259;DHT22;619;51.472;6.628;2023-08-07T05:53:18;18.50;90.50
1259;DHT22;619;51.472;6.628;2023-08-07T05:55:43;18.50;90.50
1259;DHT22;619;51.472;6.628;2023-08-07T05:58:09;18.60;90.60
1259;DHT22;619;51.472;6.628;2023-08-07T06:00:34;18.50;90.50
1259;DHT22;619;51.472;6.628;2023-08-07T06:03:00;18.60;90.60
1259;DHT22;619;51.472;6.628;2023-08-07T06:05:26;18.60;90.60
1259;DHT22;619;51.472;6.628;2023-08-07T06:07:51;18.60;90.70
1259;DHT22;619;51.472;6.628;2023-08-07T06:10:17;18.70;90.80
1259;DHT22;619;51.472;6.628;2023-08-07T06:12:43;18.60;90.70
1259;DHT22;619;51.472;6.628;2023-08-07T06:15:09;18.70;90.80
1259;DHT22;619;51.472;6.628;2023-08-07T06:17:39;18.80;90.70
1259;DHT22;619;51.472;6.628;2023-08-07T06:20:07;18.70;90.60
1259;DHT22;619;51.472;6.628;2023-08-07T06:22:34;18.70;90.60
1259;DHT22;619;51.472;6.628;2023-08-07T06:25:00;18.70;90.60
1259;DHT22;619;51.472;6.628;2023-08-07T06:27:28;18.70;91.00
1259;DHT22;619;51.472;6.628;2023-08-07T06:29:56;18.70;90.60
1259;DHT22;619;51.472;6.628;2023-08-07T06:32:21;18.70;90.70
1259;DHT22;619;51.472;6.628;2023-08-07T06:34:47;18.70;90.70
1259;DHT22;619;51.472;6.628;2023-08-07T06:37:15;18.70;90.60
1259;DHT22;619;51.472;6.628;2023-08-07T06:39:45;18.80;90.70
1259;DHT22;619;51.472;6.628;2023-08-07T06:42:14;18.80;90.70
1259;DHT22;619;51.472;6.628;2023-08-07T06:44:41;18.80;90.70
1259;DHT22;619;51.472;6.628;2023-08-07T06:47:10;18.90;90.80
1259;DHT22;619;51.472;6.628;2023-08-07T06:49:36;18.90;90.80
1259;DHT22;619;51.472;6.628;2023-08-07T06:52:04;18.90;90.70
1259;DHT22;619;51.472;6.628;2023-08-07T06:54:30;19.00;90.70
1259;DHT22;619;51.472;6.628;2023-08-07T06:56:57;19.00;90.60
1259;DHT22;619;51.472;6.628;2023-08-07T06:59:23;19.00;90.60
1259;DHT22;619;51.472;6.628;2023-08-07T07:01:49;19.00;90.60
1259;DHT22;619;51.472;6.628;2023-08-07T07:04:17;19.00;90.60
1259;DHT22;619;51.472;6.628;2023-08-07T07:06:43;19.00;90.60
1259;DHT22;619;51.472;6.628;2023-08-07T07:09:09;19.00;90.60
1259;DHT22;619;51.472;6.628;2023-08-07T07:11:42;19.10;90.70
1259;DHT22;619;51.472;6.628;2023-08-07T07:14:10;19.10;90.60
1259;DHT22;619;51.472;6.628;2023-08-07T07:16:36;19.00;90.60
1259;DHT22;619;51.472;6.628;2023-08-07T07:19:02;19.00;90.60
1259;DHT22;619;51.472;6.628;2023-08-07T07:21:30;19.00;90.70
1259;DHT22;619;51.472;6.628;2023-08-07T07:23:58;19.00;90.80
1259;DHT22;619;51.472;6.628;2023-08-07T07:26:26;19.00;90.90
1259;DHT22;619;51.472;6.628;2023-08-07T07:28:52;19.00;90.90
1259;DHT22;619;51.472;6.628;2023-08-07T07:31:17;19.00;90.90
1259;DHT22;619;51.472;6.628;2023-08-07T07:33:43;19.10;91.00
1259;DHT22;619;51.472;6.628;2023-08-07T07:36:17;19.10;91.00
1259;DHT22;619;51.472;6.628;2023-08-07T07:38:46;19.20;91.00
1259;DHT22;619;51.472;6.628;2023-08-07T07:41:15;19.20;91.10
1259;DHT22;619;51.472;6.628;2023-08-07T07:43:41;19.30;91.10
1259;DHT22;619;51.472;6.628;2023-08-07T07:46:11;19.40;91.30
1259;DHT22;619;51.472;6.628;2023-08-07T07:48:37;19.50;91.30
1259;DHT22;619;51.472;6.628;2023-08-07T07:51:03;19.70;91.30
1259;DHT22;619;51.472;6.628;2023-08-07T07:53:29;19.80;91.40
1259;DHT22;619;51.472;6.628;2023-08-07T07:55:57;19.90;91.10
1259;DHT22;619;51.472;6.628;2023-08-07T07:58:23;20.10;91.10
1259;DHT22;619;51.472;6.628;2023-08-07T08:00:51;20.20;90.70
1259;DHT22;619;51.472;6.628;2023-08-07T08:03:19;20.30;90.40
1259;DHT22;619;51.472;6.628;2023-08-07T08:05:48;20.40;90.40
1259;DHT22;619;51.472;6.628;2023-08-07T08:08:16;20.50;90.20
1259;DHT22;619;51.472;6.628;2023-08-07T08:10:42;20.50;90.00
1259;DHT22;619;51.472;6.628;2023-08-07T08:13:09;20.60;90.00
1259;DHT22;619;51.472;6.628;2023-08-07T08:15:35;20.60;89.80
1259;DHT22;619;51.472;6.628;2023-08-07T08:18:00;20.70;89.30
1259;DHT22;619;51.472;6.628;2023-08-07T08:20:28;20.70;88.90
1259;DHT22;619;51.472;6.628;2023-08-07T08:22:58;20.70;89.00
1259;DHT22;619;51.472;6.628;2023-08-07T08:25:27;20.80;88.90
1259;DHT22;619;51.472;6.628;2023-08-07T08:27:53;20.90;89.10
1259;DHT22;619;51.472;6.628;2023-08-07T08:30:20;21.00;89.20
1259;DHT22;619;51.472;6.628;2023-08-07T08:32:45;21.10;89.40
1259;DHT22;619;51.472;6.628;2023-08-07T08:35:11;21.20;89.50
1259;DHT22;619;51.472;6.628;2023-08-07T08:37:39;21.30;89.00
1259;DHT22;619;51.472;6.628;2023-08-07T08:40:06;21.40;89.20
1259;DHT22;619;51.472;6.628;2023-08-07T08:42:34;21.60;88.90
1259;DHT22;619;51.472;6.628;2023-08-07T08:45:05;21.60;87.20
1259;DHT22;619;51.472;6.628;2023-08-07T08:47:36;21.70;86.60
1259;DHT22;619;51.472;6.628;2023-08-07T08:50:05;21.70;86.00
1259;DHT22;619;51.472;6.628;2023-08-07T08:52:36;21.80;86.10
1259;DHT22;619;51.472;6.628;2023-08-07T08:55:04;21.80;85.80
1259;DHT22;619;51.472;6.628;2023-08-07T08:57:32;21.90;85.70
1259;DHT22;619;51.472;6.628;2023-08-07T08:59:58;21.90;84.80
1259;DHT22;619;51.472;6.628;2023-08-07T09:02:28;21.80;83.70
1259;DHT22;619;51.472;6.628;2023-08-07T09:04:59;21.70;84.40
1259;DHT22;619;51.472;6.628;2023-08-07T09:07:25;21.70;85.10
1259;DHT22;619;51.472;6.628;2023-08-07T09:09:52;21.70;85.70
1259;DHT22;619;51.472;6.628;2023-08-07T09:12:29;21.70;85.30
1259;DHT22;619;51.472;6.628;2023-08-07T09:14:57;21.70;84.70
1259;DHT22;619;51.472;6.628;2023-08-07T09:17:28;21.70;84.80
1259;DHT22;619;51.472;6.628;2023-08-07T09:19:55;21.60;84.60
1259;DHT22;619;51.472;6.628;2023-08-07T09:22:22;21.50;85.00
1259;DHT22;619;51.472;6.628;2023-08-07T09:24:48;21.40;85.10
1259;DHT22;619;51.472;6.628;2023-08-07T09:27:17;21.30;85.20
1259;DHT22;619;51.472;6.628;2023-08-07T09:29:43;21.30;86.30
1259;DHT22;619;51.472;6.628;2023-08-07T09:32:12;21.40;87.50
1259;DHT22;619;51.472;6.628;2023-08-07T09:34:41;21.40;88.20
1259;DHT22;619;51.472;6.628;2023-08-07T09:37:11;21.60;88.40
1259;DHT22;619;51.472;6.628;2023-08-07T09:39:40;21.70;87.80
1259;DHT22;619;51.472;6.628;2023-08-07T09:42:13;21.80;86.70
1259;DHT22;619;51.472;6.628;2023-08-07T09:44:41;21.90;87.20
1259;DHT22;619;51.472;6.628;2023-08-07T09:47:17;22.10;88.40
1259;DHT22;619;51.472;6.628;2023-08-07T09:49:44;22.20;87.00
1259;DHT22;619;51.472;6.628;2023-08-07T09:52:12;22.30;86.10
1259;DHT22;619;51.472;6.628;2023-08-07T09:54:41;22.50;86.20
1259;DHT22;619;51.472;6.628;2023-08-07T09:57:12;22.60;86.00
1259;DHT22;619;51.472;6.628;2023-08-07T09:59:38;22.70;85.10
1259;DHT22;619;51.472;6.628;2023-08-07T10:02:07;22.80;84.90
1259;DHT22;619;51.472;6.628;2023-08-07T10:04:34;22.90;84.00
1259;DHT22;619;51.472;6.628;2023-08-07T10:07:03;22.90;83.80
1259;DHT22;619;51.472;6.628;2023-08-07T10:09:29;23.10;84.40
1259;DHT22;619;51.472;6.628;2023-08-07T10:11:58;23.30;82.80
1259;DHT22;619;51.472;6.628;2023-08-07T10:14:24;23.50;83.20
1259;DHT22;619;51.472;6.628;2023-08-07T10:16:53;23.80;82.30
1259;DHT22;619;51.472;6.628;2023-08-07T10:19:21;23.90;81.20
1259;DHT22;619;51.472;6.628;2023-08-07T10:21:49;24.10;81.60
1259;DHT22;619;51.472;6.628;2023-08-07T10:24:16;24.20;80.90
1259;DHT22;619;51.472;6.628;2023-08-07T10:26:45;24.30;78.40
1259;DHT22;619;51.472;6.628;2023-08-07T10:29:14;24.40;78.10
1259;DHT22;619;51.472;6.628;2023-08-07T10:31:43;24.30;76.40
1259;DHT22;619;51.472;6.628;2023-08-07T10:34:10;24.20;75.60
1259;DHT22;619;51.472;6.628;2023-08-07T10:36:36;24.00;75.30
1259;DHT22;619;51.472;6.628;2023-08-07T10:39:14;23.80;75.90
1259;DHT22;619;51.472;6.628;2023-08-07T10:41:53;23.50;76.70
1259;DHT22;619;51.472;6.628;2023-08-07T10:44:25;23.20;77.70
1259;DHT22;619;51.472;6.628;2023-08-07T10:46:57;22.90;78.90
1259;DHT22;619;51.472;6.628;2023-08-07T10:49:38;22.60;81.90
1259;DHT22;619;51.472;6.628;2023-08-07T10:52:17;22.60;85.30
1259;DHT22;619;51.472;6.628;2023-08-07T10:54:48;22.70;88.60
1259;DHT22;619;51.472;6.628;2023-08-07T10:57:18;22.90;90.30
1259;DHT22;619;51.472;6.628;2023-08-07T11:02:25;23.40;89.70
1259;DHT22;619;51.472;6.628;2023-08-07T11:04:56;23.70;87.60
1259;DHT22;619;51.472;6.628;2023-08-07T11:07:26;23.80;82.40
1259;DHT22;619;51.472;6.628;2023-08-07T11:09:55;23.90;80.90
1259;DHT22;619;51.472;6.628;2023-08-07T11:12:29;23.80;76.70
1259;DHT22;619;51.472;6.628;2023-08-07T11:14:57;23.70;74.40
1259;DHT22;619;51.472;6.628;2023-08-07T11:17:29;23.50;73.90
1259;DHT22;619;51.472;6.628;2023-08-07T11:19:55;23.40;74.50
1259;DHT22;619;51.472;6.628;2023-08-07T11:22:22;23.30;75.00
1259;DHT22;619;51.472;6.628;2023-08-07T11:24:50;23.10;75.20
1259;DHT22;619;51.472;6.628;2023-08-07T11:27:16;23.10;76.60
1259;DHT22;619;51.472;6.628;2023-08-07T11:29:47;23.00;77.70
1259;DHT22;619;51.472;6.628;2023-08-07T11:32:14;23.10;80.40
1259;DHT22;619;51.472;6.628;2023-08-07T11:34:39;23.30;83.10
1259;DHT22;619;51.472;6.628;2023-08-07T11:37:05;23.50;82.50
1259;DHT22;619;51.472;6.628;2023-08-07T11:39:30;23.60;80.20
1259;DHT22;619;51.472;6.628;2023-08-07T11:41:59;23.70;79.80
1259;DHT22;619;51.472;6.628;2023-08-07T11:44:25;23.70;77.50
1259;DHT22;619;51.472;6.628;2023-08-07T11:46:53;23.70;76.10
1259;DHT22;619;51.472;6.628;2023-08-07T11:49:19;23.70;75.20
1259;DHT22;619;51.472;6.628;2023-08-07T11:51:45;23.70;76.30
1259;DHT22;619;51.472;6.628;2023-08-07T11:54:14;23.70;76.20
1259;DHT22;619;51.472;6.628;2023-08-07T11:56:41;23.80;76.90
1259;DHT22;619;51.472;6.628;2023-08-07T11:59:13;24.00;77.80
1259;DHT22;619;51.472;6.628;2023-08-07T12:01:41;24.10;76.60
1259;DHT22;619;51.472;6.628;2023-08-07T12:04:10;24.30;75.90
1259;DHT22;619;51.472;6.628;2023-08-07T12:06:36;24.50;72.20
1259;DHT22;619;51.472;6.628;2023-08-07T12:09:05;24.50;69.80
1259;DHT22;619;51.472;6.628;2023-08-07T12:11:31;24.50;70.20
1259;DHT22;619;51.472;6.628;2023-08-07T12:14:00;24.60;71.50
1259;DHT22;619;51.472;6.628;2023-08-07T12:16:33;24.60;69.60
1259;DHT22;619;51.472;6.628;2023-08-07T12:18:58;24.50;67.60
1259;DHT22;619;51.472;6.628;2023-08-07T12:21:29;24.40;67.20
1259;DHT22;619;51.472;6.628;2023-08-07T12:23:57;24.40;69.00
1259;DHT22;619;51.472;6.628;2023-08-07T12:26:24;24.50;70.40
1259;DHT22;619;51.472;6.628;2023-08-07T12:28:50;24.70;71.60
1259;DHT22;619;51.472;6.628;2023-08-07T12:31:16;24.80;70.50
1259;DHT22;619;51.472;6.628;2023-08-07T12:33:45;24.90;70.70
1259;DHT22;619;51.472;6.628;2023-08-07T12:36:10;25.10;71.90
1259;DHT22;619;51.472;6.628;2023-08-07T12:38:41;25.20;68.70
1259;DHT22;619;51.472;6.628;2023-08-07T12:41:09;25.20;68.10
1259;DHT22;619;51.472;6.628;2023-08-07T12:43:35;25.30;68.00
1259;DHT22;619;51.472;6.628;2023-08-07T12:46:00;25.30;67.90
1259;DHT22;619;51.472;6.628;2023-08-07T12:48:30;25.30;67.70
1259;DHT22;619;51.472;6.628;2023-08-07T12:50:56;25.30;67.30
1259;DHT22;619;51.472;6.628;2023-08-07T12:53:24;25.40;69.00
1259;DHT22;619;51.472;6.628;2023-08-07T12:55:52;25.50;69.40
1259;DHT22;619;51.472;6.628;2023-08-07T12:58:20;25.60;68.40
1259;DHT22;619;51.472;6.628;2023-08-07T13:00:51;25.70;69.90
1259;DHT22;619;51.472;6.628;2023-08-07T13:03:16;25.90;73.40
1259;DHT22;619;51.472;6.628;2023-08-07T13:05:42;26.30;70.90
1259;DHT22;619;51.472;6.628;2023-08-07T13:08:07;26.50;68.30
1259;DHT22;619;51.472;6.628;2023-08-07T13:10:33;26.70;67.40
1259;DHT22;619;51.472;6.628;2023-08-07T13:13:03;26.90;63.40
1259;DHT22;619;51.472;6.628;2023-08-07T13:15:30;26.90;63.90
1259;DHT22;619;51.472;6.628;2023-08-07T13:17:56;26.90;61.40
1259;DHT22;619;51.472;6.628;2023-08-07T13:20:23;26.80;60.60
1259;DHT22;619;51.472;6.628;2023-08-07T13:22:52;26.90;63.40
1259;DHT22;619;51.472;6.628;2023-08-07T13:25:18;26.90;61.60
1259;DHT22;619;51.472;6.628;2023-08-07T13:27:46;27.00;60.10
1259;DHT22;619;51.472;6.628;2023-08-07T13:30:11;27.10;59.40
1259;DHT22;619;51.472;6.628;2023-08-07T13:32:37;27.10;57.80
1259;DHT22;619;51.472;6.628;2023-08-07T13:35:03;26.90;58.50
1259;DHT22;619;51.472;6.628;2023-08-07T13:37:29;26.70;57.40
1259;DHT22;619;51.472;6.628;2023-08-07T13:39:54;26.60;58.50
1259;DHT22;619;51.472;6.628;2023-08-07T13:42:24;26.60;58.50
1259;DHT22;619;51.472;6.628;2023-08-07T13:44:50;26.70;57.30
1259;DHT22;619;51.472;6.628;2023-08-07T13:47:18;26.80;59.30
1259;DHT22;619;51.472;6.628;2023-08-07T13:49:48;27.10;58.20
1259;DHT22;619;51.472;6.628;2023-08-07T13:52:13;27.30;55.90
1259;DHT22;619;51.472;6.628;2023-08-07T13:54:41;27.40;54.30
1259;DHT22;619;51.472;6.628;2023-08-07T13:57:09;27.60;53.60
1259;DHT22;619;51.472;6.628;2023-08-07T13:59:38;27.80;51.80
1259;DHT22;619;51.472;6.628;2023-08-07T14:02:07;27.90;51.70
1259;DHT22;619;51.472;6.628;2023-08-07T14:04:34;28.00;51.70
1259;DHT22;619;51.472;6.628;2023-08-07T14:07:02;27.90;50.90
1259;DHT22;619;51.472;6.628;2023-08-07T14:09:29;27.90;50.00
1259;DHT22;619;51.472;6.628;2023-08-07T14:14:22;27.70;47.10
1259;DHT22;619;51.472;6.628;2023-08-07T14:16:48;27.70;47.30
1259;DHT22;619;51.472;6.628;2023-08-07T14:19:13;27.60;47.80
1259;DHT22;619;51.472;6.628;2023-08-07T14:21:41;27.70;47.00
1259;DHT22;619;51.472;6.628;2023-08-07T14:24:07;27.80;46.60
1259;DHT22;619;51.472;6.628;2023-08-07T14:26:35;27.80;45.00
1259;DHT22;619;51.472;6.628;2023-08-07T14:29:01;27.70;45.20
1259;DHT22;619;51.472;6.628;2023-08-07T14:31:28;27.80;46.00
1259;DHT22;619;51.472;6.628;2023-08-07T14:33:56;27.90;46.00
1259;DHT22;619;51.472;6.628;2023-08-07T14:36:22;28.00;45.30
1259;DHT22;619;51.472;6.628;2023-08-07T14:38:48;28.00;45.80
1259;DHT22;619;51.472;6.628;2023-08-07T14:41:13;28.00;45.40
1259;DHT22;619;51.472;6.628;2023-08-07T14:43:39;27.90;45.60
1259;DHT22;619;51.472;6.628;2023-08-07T14:46:04;27.90;46.50
1259;DHT22;619;51.472;6.628;2023-08-07T14:48:32;27.80;46.10
1259;DHT22;619;51.472;6.628;2023-08-07T14:50:58;27.60;46.10
1259;DHT22;619;51.472;6.628;2023-08-07T14:53:23;27.60;47.50
1259;DHT22;619;51.472;6.628;2023-08-07T14:55:50;27.60;47.20
1259;DHT22;619;51.472;6.628;2023-08-07T14:58:16;27.50;47.00
1259;DHT22;619;51.472;6.628;2023-08-07T15:00:44;27.60;47.50
1259;DHT22;619;51.472;6.628;2023-08-07T15:03:12;27.70;48.40
1259;DHT22;619;51.472;6.628;2023-08-07T15:05:38;27.90;47.40
1259;DHT22;619;51.472;6.628;2023-08-07T15:08:06;27.90;47.20
1259;DHT22;619;51.472;6.628;2023-08-07T15:10:33;27.80;48.00
1259;DHT22;619;51.472;6.628;2023-08-07T15:13:00;27.80;48.00
1259;DHT22;619;51.472;6.628;2023-08-07T15:15:26;27.80;48.20
1259;DHT22;619;51.472;6.628;2023-08-07T15:17:52;27.70;48.20
1259;DHT22;619;51.472;6.628;2023-08-07T15:20:18;27.50;47.90
1259;DHT22;619;51.472;6.628;2023-08-07T15:22:47;27.30;47.80
1259;DHT22;619;51.472;6.628;2023-08-07T15:25:13;27.10;48.60
1259;DHT22;619;51.472;6.628;2023-08-07T15:27:39;26.90;49.00
1259;DHT22;619;51.472;6.628;2023-08-07T15:30:05;26.70;49.50
1259;DHT22;619;51.472;6.628;2023-08-07T15:32:33;26.60;50.40
1259;DHT22;619;51.472;6.628;2023-08-07T15:35:01;26.50;52.50
1259;DHT22;619;51.472;6.628;2023-08-07T15:37:27;26.20;52.50
1259;DHT22;619;51.472;6.628;2023-08-07T15:39:52;26.10;53.80
1259;DHT22;619;51.472;6.628;2023-08-07T15:42:18;25.90;53.70
1259;DHT22;619;51.472;6.628;2023-08-07T15:44:46;25.90;53.60
1259;DHT22;619;51.472;6.628;2023-08-07T15:47:12;25.80;54.20
1259;DHT22;619;51.472;6.628;2023-08-07T15:49:40;25.60;54.90
1259;DHT22;619;51.472;6.628;2023-08-07T15:52:09;25.50;55.60
1259;DHT22;619;51.472;6.628;2023-08-07T15:54:35;25.70;56.50
1259;DHT22;619;51.472;6.628;2023-08-07T15:57:01;25.80;55.50
1259;DHT22;619;51.472;6.628;2023-08-07T15:59:29;26.00;55.30
1259;DHT22;619;51.472;6.628;2023-08-07T16:01:57;26.20;54.30
1259;DHT22;619;51.472;6.628;2023-08-07T16:04:25;26.40;54.00
1259;DHT22;619;51.472;6.628;2023-08-07T16:06:53;26.60;52.80
1259;DHT22;619;51.472;6.628;2023-08-07T16:09:21;26.40;51.70
1259;DHT22;619;51.472;6.628;2023-08-07T16:11:49;26.10;52.00
1259;DHT22;619;51.472;6.628;2023-08-07T16:14:14;25.80;52.50
1259;DHT22;619;51.472;6.628;2023-08-07T16:16:40;25.50;53.40
1259;DHT22;619;51.472;6.628;2023-08-07T16:19:05;25.30;54.00
1259;DHT22;619;51.472;6.628;2023-08-07T16:21:34;25.20;55.00
1259;DHT22;619;51.472;6.628;2023-08-07T16:23:59;25.00;55.70
1259;DHT22;619;51.472;6.628;2023-08-07T16:26:27;24.90;56.40